| time (UTC) | temp C | wind direction | speed KPH | gust KPH | rain 1hr cm | rain 24hr cm | rain mn cm | humidity % | barometer mb |
| 20260506202045 | 16 | 233 | 1.6 | 4.8 | 0.00 | 0.56 | 0.56 | 88 | 1006.2 |
| 20260506201545 | 16 | 250 | 1.6 | 6.4 | 0.00 | 0.56 | 0.56 | 88 | 1006.2 |
| 20260506201047 | 16 | 241 | 1.6 | 6.4 | 0.00 | 0.56 | 0.56 | 88 | 1006.2 |
| 20260506200543 | 16 | 238 | 1.6 | 6.4 | 0.00 | 0.56 | 0.56 | 88 | 1006.3 |
| 20260506200112 | 16 | 233 | 1.6 | 4.8 | 0.00 | 0.56 | 0.56 | 89 | 1006.3 |
| 20260506195543 | 16 | 255 | 1.6 | 6.4 | 0.00 | 0.56 | 0.56 | 89 | 1006.4 |
| 20260506195044 | 16 | 237 | 3.2 | 6.4 | 0.00 | 0.56 | 0.56 | 89 | 1006.4 |
| 20260506194543 | 16 | 259 | 3.2 | 6.4 | 0.00 | 0.56 | 0.56 | 90 | 1006.4 |
| 20260506194043 | 16 | 262 | 1.6 | 6.4 | 0.00 | 0.56 | 0.56 | 90 | 1006.5 |
| 20260506193542 | 16 | 238 | 1.6 | 6.4 | 0.00 | 0.56 | 0.56 | 90 | 1006.5 |
| 20260506193042 | 15 | 255 | 1.6 | 4.8 | 0.00 | 0.56 | 0.56 | 91 | 1006.6 |
| 20260506192540 | 15 | 255 | 1.6 | 4.8 | 0.00 | 0.56 | 0.56 | 91 | 1006.6 |
| 20260506192039 | 15 | 222 | 1.6 | 4.8 | 0.03 | 0.56 | 0.56 | 91 | 1006.7 |
| 20260506191539 | 15 | 243 | 1.6 | 8.0 | 0.03 | 0.56 | 0.56 | 91 | 1006.8 |
| 20260506191038 | 15 | 243 | 1.6 | 8.0 | 0.03 | 0.56 | 0.56 | 90 | 1006.9 |
| 20260506190538 | 15 | 252 | 1.6 | 6.4 | 0.03 | 0.56 | 0.56 | 91 | 1006.8 |
| 20260506190038 | 15 | 234 | 3.2 | 6.4 | 0.03 | 0.56 | 0.56 | 90 | 1006.8 |
| 20260506185538 | 15 | 253 | 3.2 | 6.4 | 0.03 | 0.56 | 0.56 | 90 | 1006.9 |
| 20260506185039 | 15 | 242 | 1.6 | 6.4 | 0.03 | 0.56 | 0.56 | 90 | 1007.0 |
| 20260506184536 | 15 | 232 | 3.2 | 6.4 | 0.03 | 0.56 | 0.56 | 90 | 1007.1 |
| 20260506184037 | 15 | 255 | 3.2 | 6.4 | 0.03 | 0.56 | 0.56 | 89 | 1007.0 |
| 20260506183536 | 15 | 263 | 1.6 | 6.4 | 0.03 | 0.56 | 0.56 | 90 | 1007.1 |
| 20260506183036 | 15 | 250 | 1.6 | 6.4 | 0.03 | 0.56 | 0.56 | 89 | 1007.0 |
| 20260506182535 | 15 | 249 | 1.6 | 8.0 | 0.00 | 0.53 | 0.53 | 89 | 1007.0 |
| 20260506182035 | 15 | 244 | 1.6 | 8.0 | 0.00 | 0.53 | 0.53 | 89 | 1007.0 |
| 20260506181538 | 15 | 265 | 1.6 | 6.4 | 0.00 | 0.53 | 0.53 | 88 | 1007.0 |
| 20260506181035 | 15 | 238 | 1.6 | 6.4 | 0.00 | 0.53 | 0.53 | 88 | 1007.1 |
| 20260506180535 | 15 | 233 | 3.2 | 6.4 | 0.00 | 0.53 | 0.53 | 88 | 1007.2 |
| 20260506180045 | 15 | 250 | 1.6 | 8.0 | 0.00 | 0.53 | 0.53 | 88 | 1007.1 |
| 20260506175535 | 15 | 273 | 3.2 | 9.7 | 0.00 | 0.53 | 0.53 | 88 | 1007.2 |
| 20260506175034 | 15 | 239 | 1.6 | 9.7 | 0.00 | 0.53 | 0.53 | 88 | 1007.2 |
| 20260506174534 | 15 | 231 | 1.6 | 6.4 | 0.00 | 0.53 | 0.53 | 89 | 1007.2 |
| 20260506174034 | 15 | 228 | 1.6 | 6.4 | 0.03 | 0.53 | 0.53 | 89 | 1007.2 |
| 20260506173534 | 15 | 232 | 1.6 | 6.4 | 0.03 | 0.53 | 0.53 | 89 | 1007.3 |
| 20260506173035 | 15 | 224 | 0.0 | 4.8 | 0.05 | 0.53 | 0.53 | 89 | 1007.3 |
| 20260506172534 | 15 | 224 | 1.6 | 9.7 | 0.05 | 0.53 | 0.53 | 89 | 1007.4 |
| 20260506172034 | 15 | 237 | 3.2 | 9.7 | 0.08 | 0.53 | 0.53 | 89 | 1007.5 |
| 20260506171547 | 15 | 101 | 1.6 | 6.4 | 0.08 | 0.53 | 0.53 | 89 | 1007.5 |
| 20260506171034 | 16 | 231 | 1.6 | 6.4 | 0.08 | 0.53 | 0.53 | 89 | 1007.4 |
| 20260506170534 | 16 | 238 | 1.6 | 12.9 | 0.10 | 0.53 | 0.53 | 89 | 1007.4 |
| 20260506170036 | 16 | 170 | 1.6 | 12.9 | 0.10 | 0.53 | 0.53 | 89 | 1007.4 |
| 20260506165533 | 16 | 243 | 1.6 | 16.1 | 0.13 | 0.53 | 0.53 | 90 | 1007.3 |
| 20260506165033 | 16 | 153 | 3.2 | 24.1 | 0.18 | 0.53 | 0.53 | 90 | 1007.1 |
| 20260506164533 | 15 | 169 | 6.4 | 24.1 | 0.20 | 0.53 | 0.53 | 90 | 1007.2 |
| 20260506164032 | 15 | 222 | 3.2 | 14.5 | 0.23 | 0.51 | 0.51 | 90 | 1007.0 |
| 20260506163531 | 15 | 149 | 4.8 | 17.7 | 0.28 | 0.51 | 0.51 | 90 | 1007.1 |
| 20260506163036 | 15 | 134 | 4.8 | 20.9 | 0.28 | 0.48 | 0.48 | 89 | 1007.0 |
| 20260506162532 | 15 | 152 | 3.2 | 20.9 | 0.30 | 0.48 | 0.48 | 89 | 1007.4 |
| 20260506162028 | 15 | 189 | 4.8 | 14.5 | 0.30 | 0.46 | 0.46 | 90 | 1007.7 |
| 20260506161539 | 15 | 182 | 1.6 | 8.0 | 0.30 | 0.46 | 0.46 | 90 | 1008.1 |
| 20260506161026 | 15 | 79 | 0.0 | 8.0 | 0.33 | 0.46 | 0.46 | 89 | 1008.3 |
| 20260506160529 | 15 | 128 | 0.0 | 8.0 | 0.30 | 0.43 | 0.43 | 89 | 1008.4 |
| 20260506160026 | 15 | 226 | 1.6 | 6.4 | 0.28 | 0.41 | 0.41 | 89 | 1008.5 |
| 20260506155525 | 15 | 199 | 1.6 | 6.4 | 0.25 | 0.38 | 0.38 | 88 | 1008.6 |
| 20260506155025 | 15 | 239 | 0.0 | 3.2 | 0.25 | 0.36 | 0.36 | 88 | 1008.6 |
| 20260506154524 | 15 | 239 | 1.6 | 4.8 | 0.25 | 0.33 | 0.33 | 88 | 1008.5 |
| 20260506154023 | 16 | 239 | 1.6 | 4.8 | 0.20 | 0.25 | 0.25 | 87 | 1008.6 |
| 20260506153522 | 16 | 143 | 0.0 | 4.8 | 0.20 | 0.23 | 0.23 | 87 | 1008.8 |
| 20260506153021 | 16 | 222 | 1.6 | 8.0 | 0.15 | 0.18 | 0.18 | 87 | 1008.8 |
| 20260506152520 | 16 | 222 | 1.6 | 8.0 | 0.18 | 0.18 | 0.18 | 87 | 1008.7 |
| 20260506152020 | 16 | 209 | 0.0 | 4.8 | 0.15 | 0.15 | 0.15 | 87 | 1008.8 |
| 20260506151520 | 16 | 209 | 0.0 | 4.8 | 0.15 | 0.15 | 0.15 | 86 | 1008.6 |
| 20260506151020 | 16 | 209 | 0.0 | 3.2 | 0.13 | 0.13 | 0.13 | 86 | 1008.7 |
| 20260506150518 | 16 | 152 | 0.0 | 3.2 | 0.13 | 0.13 | 0.13 | 86 | 1008.4 |
| 20260506150024 | 16 | 152 | 0.0 | 4.8 | 0.13 | 0.13 | 0.13 | 85 | 1008.4 |
| 20260506145517 | 16 | 171 | 0.0 | 4.8 | 0.10 | 0.10 | 0.10 | 85 | 1008.4 |
| 20260506145017 | 16 | 143 | 0.0 | 4.8 | 0.10 | 0.10 | 0.10 | 84 | 1008.5 |
| 20260506144515 | 16 | 169 | 1.6 | 4.8 | 0.08 | 0.08 | 0.08 | 83 | 1008.6 |
| 20260506144014 | 17 | 206 | 1.6 | 4.8 | 0.05 | 0.05 | 0.05 | 81 | 1008.6 |
| 20260506143514 | 17 | 158 | 0.0 | 4.8 | 0.03 | 0.03 | 0.03 | 80 | 1008.7 |
| 20260506143013 | 17 | 238 | 0.0 | 6.4 | 0.03 | 0.03 | 0.03 | 78 | 1008.8 |
| 20260506142512 | 17 | 238 | 1.6 | 6.4 | 0.00 | 0.00 | 0.00 | 77 | 1008.8 |
| 20260506142012 | 18 | 225 | 1.6 | 6.4 | 0.00 | 0.00 | 0.00 | 75 | 1008.8 |
| 20260506141512 | 18 | 269 | 1.6 | 6.4 | 0.00 | 0.00 | 0.00 | 74 | 1008.7 |
| 20260506141011 | 18 | 226 | 3.2 | 6.4 | 0.00 | 0.00 | 0.00 | 73 | 1008.6 |
| 20260506140511 | 18 | 248 | 3.2 | 4.8 | 0.00 | 0.00 | 0.00 | 73 | 1008.5 |
| 20260506140011 | 18 | 161 | 0.0 | 9.7 | 0.00 | 0.00 | 0.00 | 74 | 1008.4 |
| 20260506135510 | 18 | 227 | 1.6 | 9.7 | 0.00 | 0.00 | 0.00 | 73 | 1008.2 |
| 20260506135015 | 18 | 174 | 3.2 | 6.4 | 0.00 | 0.00 | 0.00 | 75 | 1008.3 |
| 20260506134521 | 18 | 203 | 3.2 | 6.4 | 0.00 | 0.00 | 0.00 | 74 | 1008.4 |
| 20260506134011 | 18 | 245 | 1.6 | 6.4 | 0.00 | 0.00 | 0.00 | 74 | 1008.6 |
| 20260506133511 | 17 | 242 | 3.2 | 14.5 | 0.00 | 0.00 | 0.00 | 74 | 1008.5 |
| 20260506133011 | 18 | 249 | 3.2 | 14.5 | 0.00 | 0.00 | 0.00 | 74 | 1008.6 |
| 20260506132509 | 18 | 43 | 0.0 | 4.8 | 0.00 | 0.00 | 0.00 | 75 | 1008.5 |
| 20260506132009 | 18 | 255 | 1.6 | 4.8 | 0.00 | 0.00 | 0.00 | 74 | 1008.6 |
| 20260506131511 | 18 | 257 | 1.6 | 8.0 | 0.00 | 0.00 | 0.00 | 74 | 1008.6 |
| 20260506131009 | 18 | 264 | 3.2 | 8.0 | 0.00 | 0.00 | 0.00 | 74 | 1008.7 |
| 20260506130509 | 18 | 242 | 3.2 | 6.4 | 0.00 | 0.00 | 0.00 | 74 | 1008.8 |
| 20260506130009 | 18 | 282 | 1.6 | 4.8 | 0.00 | 0.00 | 0.00 | 74 | 1008.8 |
| 20260506125509 | 18 | 237 | 1.6 | 8.0 | 0.00 | 0.00 | 0.00 | 74 | 1008.7 |
| 20260506125007 | 17 | 237 | 3.2 | 8.0 | 0.00 | 0.00 | 0.00 | 76 | 1008.8 |
| 20260506124512 | 17 | 222 | 1.6 | 6.4 | 0.00 | 0.00 | 0.00 | 75 | 1008.7 |
| 20260506124007 | 17 | 234 | 1.6 | 4.8 | 0.00 | 0.00 | 0.00 | 75 | 1008.7 |
| 20260506123507 | 17 | 225 | 1.6 | 6.4 | 0.00 | 0.00 | 0.00 | 75 | 1008.7 |
| 20260506123007 | 17 | 241 | 1.6 | 6.4 | 0.00 | 0.00 | 0.00 | 75 | 1008.6 |
| 20260506122508 | 17 | 168 | 1.6 | 4.8 | 0.00 | 0.00 | 0.00 | 75 | 1008.5 |
| 20260506122007 | 17 | 218 | 1.6 | 14.5 | 0.00 | 0.00 | 0.00 | 75 | 1008.5 |
| 20260506121509 | 17 | 137 | 3.2 | 14.5 | 0.00 | 0.00 | 0.00 | 75 | 1008.6 |
| 20260506121005 | 17 | 189 | 3.2 | 11.3 | 0.00 | 0.00 | 0.00 | 75 | 1008.5 |
| 20260506120505 | 17 | 164 | 1.6 | 11.3 | 0.00 | 0.00 | 0.00 | 76 | 1008.6 |
| 20260506120010 | 17 | 222 | 1.6 | 8.0 | 0.00 | 0.00 | 0.00 | 76 | 1008.5 |
| 20260506115505 | 17 | 149 | 1.6 | 8.0 | 0.00 | 0.00 | 0.00 | 76 | 1008.5 |
| 20260506115004 | 17 | 205 | 1.6 | 11.3 | 0.00 | 0.00 | 0.00 | 76 | 1008.6 |
| 20260506114506 | 17 | 143 | 1.6 | 19.3 | 0.00 | 0.00 | 0.00 | 76 | 1008.6 |
| 20260506114005 | 17 | 194 | 4.8 | 19.3 | 0.00 | 0.00 | 0.00 | 76 | 1008.5 |
| 20260506113504 | 17 | 162 | 1.6 | 11.3 | 0.00 | 0.00 | 0.00 | 76 | 1008.4 |
| 20260506113006 | 17 | 180 | 1.6 | 12.9 | 0.00 | 0.00 | 0.00 | 76 | 1008.4 |
| 20260506112503 | 17 | 218 | 3.2 | 12.9 | 0.00 | 0.00 | 0.00 | 76 | 1008.6 |
| 20260506112004 | 17 | 217 | 1.6 | 11.3 | 0.00 | 0.00 | 0.00 | 76 | 1008.7 |
| 20260506111503 | 17 | 232 | 1.6 | 12.9 | 0.00 | 0.00 | 0.00 | 76 | 1008.6 |
| 20260506111002 | 17 | 220 | 1.6 | 12.9 | 0.00 | 0.00 | 0.00 | 76 | 1008.4 |
| 20260506110502 | 17 | 191 | 1.6 | 16.1 | 0.00 | 0.00 | 0.00 | 76 | 1008.3 |
| 20260506110009 | 17 | 162 | 3.2 | 16.1 | 0.00 | 0.00 | 0.00 | 76 | 1008.2 |
| 20260506105502 | 17 | 208 | 8.0 | 16.1 | 0.00 | 0.00 | 0.00 | 76 | 1008.4 |
| 20260506105002 | 17 | 239 | 4.8 | 16.1 | 0.00 | 0.00 | 0.00 | 77 | 1008.3 |
| 20260506104501 | 17 | 153 | 0.0 | 16.1 | 0.00 | 0.00 | 0.00 | 77 | 1008.2 |
| 20260506104001 | 17 | 161 | 3.2 | 12.9 | 0.00 | 0.00 | 0.00 | 77 | 1008.1 |
| 20260506103502 | 17 | 73 | 1.6 | 12.9 | 0.00 | 0.00 | 0.00 | 77 | 1008.1 |
| 20260506103002 | 17 | 213 | 1.6 | 12.9 | 0.00 | 0.00 | 0.00 | 76 | 1008.1 |
| 20260506102601 | 17 | 127 | 4.8 | 14.5 | 0.00 | 0.00 | 0.00 | 76 | 1008.0 |
| 20260506102101 | 17 | 149 | 0.0 | 11.3 | 0.00 | 0.00 | 0.00 | 76 | 1008.1 |
| 20260506101601 | 17 | 135 | 3.2 | 12.9 | 0.00 | 0.00 | 0.00 | 76 | 1008.1 |
| 20260506101059 | 17 | 152 | 4.8 | 12.9 | 0.00 | 0.00 | 0.00 | 76 | 1008.2 |
| 20260506100601 | 17 | 177 | 3.2 | 12.9 | 0.00 | 0.00 | 0.00 | 77 | 1008.2 |
| 20260506100104 | 17 | 151 | 3.2 | 12.9 | 0.00 | 0.00 | 0.00 | 77 | 1008.3 |
| 20260506095559 | 17 | 155 | 1.6 | 12.9 | 0.00 | 0.00 | 0.00 | 77 | 1008.4 |
| 20260506095059 | 17 | 142 | 1.6 | 9.7 | 0.00 | 0.00 | 0.00 | 77 | 1008.3 |
| 20260506094558 | 17 | 162 | 1.6 | 9.7 | 0.00 | 0.00 | 0.00 | 77 | 1008.2 |
| 20260506094057 | 17 | 163 | 1.6 | 11.3 | 0.00 | 0.00 | 0.00 | 77 | 1008.2 |
| 20260506093601 | 17 | 155 | 1.6 | 12.9 | 0.00 | 0.00 | 0.00 | 76 | 1008.2 |
| 20260506093100 | 17 | 169 | 1.6 | 12.9 | 0.00 | 0.00 | 0.00 | 76 | 1008.2 |
| 20260506092557 | 17 | 158 | 1.6 | 8.0 | 0.00 | 0.00 | 0.00 | 76 | 1008.2 |
| 20260506092058 | 17 | 237 | 3.2 | 12.9 | 0.00 | 0.00 | 0.00 | 76 | 1008.2 |
| 20260506091555 | 17 | 185 | 4.8 | 12.9 | 0.00 | 0.00 | 0.00 | 76 | 1008.2 |
| 20260506091055 | 17 | 173 | 1.6 | 6.4 | 0.00 | 0.00 | 0.00 | 76 | 1008.2 |
| 20260506090553 | 17 | 177 | 1.6 | 14.5 | 0.00 | 0.00 | 0.00 | 77 | 1008.3 |
| 20260506090054 | 17 | 132 | 1.6 | 14.5 | 0.00 | 0.00 | 0.00 | 76 | 1008.3 |
| 20260506085553 | 17 | 151 | 0.0 | 12.9 | 0.00 | 0.00 | 0.00 | 76 | 1008.3 |
| 20260506085053 | 17 | 139 | 1.6 | 8.0 | 0.00 | 0.00 | 0.00 | 76 | 1008.4 |
| 20260506084553 | 17 | 139 | 0.0 | 9.7 | 0.00 | 0.00 | 0.00 | 76 | 1008.4 |
| 20260506084055 | 17 | 151 | 0.0 | 11.3 | 0.00 | 0.00 | 0.00 | 76 | 1008.4 |
| 20260506083553 | 17 | 163 | 1.6 | 11.3 | 0.00 | 0.00 | 0.00 | 75 | 1008.3 |
| 20260506083109 | 17 | 153 | 1.6 | 8.0 | 0.00 | 0.00 | 0.00 | 75 | 1008.3 |
| 20260506082550 | 17 | 146 | 1.6 | 8.0 | 0.00 | 0.00 | 0.00 | 75 | 1008.3 |
| 20260506082052 | 17 | 133 | 1.6 | 6.4 | 0.00 | 0.00 | 0.00 | 75 | 1008.4 |
| 20260506081552 | 17 | 176 | 1.6 | 6.4 | 0.00 | 0.00 | 0.00 | 75 | 1008.4 |
| 20260506081049 | 17 | 176 | 1.6 | 17.7 | 0.00 | 0.00 | 0.00 | 74 | 1008.4 |
| 20260506080549 | 17 | 97 | 3.2 | 17.7 | 0.00 | 0.00 | 0.00 | 74 | 1008.4 |
| 20260506073044 | 18 | 137 | 3.2 | 11.3 | 0.00 | 0.03 | 0.00 | 71 | 1008.4 |
| 20260506072544 | 18 | 157 | 1.6 | 17.7 | 0.00 | 0.03 | 0.00 | 71 | 1008.4 |
| 20260506072043 | 18 | 171 | 3.2 | 17.7 | 0.00 | 0.03 | 0.00 | 71 | 1008.5 |
| 20260506071545 | 18 | 225 | 1.6 | 11.3 | 0.00 | 0.03 | 0.00 | 70 | 1008.5 |
| 20260506071041 | 18 | 195 | 3.2 | 16.1 | 0.00 | 0.03 | 0.00 | 70 | 1008.5 |
| 20260506070541 | 18 | 151 | 1.6 | 16.1 | 0.00 | 0.03 | 0.00 | 70 | 1008.6 |
| 20260506062037 | 18 | 212 | 1.6 | 11.3 | 0.00 | 0.03 | 0.00 | 67 | 1009.0 |
| 20260506061540 | 18 | 183 | 3.2 | 11.3 | 0.00 | 0.03 | 0.00 | 67 | 1009.1 |
| 20260506061036 | 18 | 157 | 1.6 | 11.3 | 0.00 | 0.03 | 0.00 | 67 | 1009.0 |
| 20260506060535 | 18 | 272 | 1.6 | 14.5 | 0.00 | 0.03 | 0.00 | 66 | 1009.0 |
| 20260506051030 | 19 | 153 | 1.6 | 22.5 | 0.00 | 0.03 | 0.00 | 64 | 1009.5 |
| 20260506050530 | 19 | 174 | 1.6 | 22.5 | 0.00 | 0.03 | 0.00 | 64 | 1009.5 |
| 20260506045030 | 19 | 182 | 3.2 | 6.4 | 0.00 | 0.03 | 0.00 | 63 | 1009.6 |
| 20260506044529 | 19 | 221 | 3.2 | 8.0 | 0.00 | 0.03 | 0.00 | 63 | 1009.5 |
| 20260506044129 | 19 | 135 | 1.6 | 6.4 | 0.00 | 0.03 | 0.00 | 63 | 1009.6 |
| 20260506043528 | 19 | 243 | 1.6 | 14.5 | 0.00 | 0.03 | 0.00 | 63 | 1009.7 |
| 20260506043027 | 19 | 222 | 3.2 | 14.5 | 0.00 | 0.03 | 0.00 | 63 | 1009.6 |
| 20260506042528 | 19 | 177 | 1.6 | 16.1 | 0.00 | 0.03 | 0.00 | 64 | 1009.6 |
| 20260506042028 | 18 | 178 | 1.6 | 16.1 | 0.00 | 0.03 | 0.00 | 63 | 1009.5 |
| 20260506041527 | 18 | 149 | 1.6 | 11.3 | 0.00 | 0.03 | 0.00 | 63 | 1009.4 |
| 20260506041026 | 18 | 204 | 1.6 | 8.0 | 0.00 | 0.03 | 0.00 | 63 | 1009.6 |
| 20260506040525 | 18 | 171 | 1.6 | 9.7 | 0.00 | 0.03 | 0.00 | 64 | 1009.6 |
| 20260506040027 | 19 | 162 | 3.2 | 12.9 | 0.00 | 0.03 | 0.00 | 63 | 1009.6 |
| 20260506035526 | 19 | 156 | 0.0 | 12.9 | 0.00 | 0.03 | 0.03 | 63 | 1009.6 |
| 20260506035024 | 19 | 145 | 1.6 | 12.9 | 0.00 | 0.03 | 0.03 | 63 | 1009.6 |
| 20260506034523 | 19 | 188 | 1.6 | 12.9 | 0.00 | 0.03 | 0.03 | 63 | 1009.6 |
| 20260506034023 | 19 | 155 | 1.6 | 14.5 | 0.00 | 0.03 | 0.03 | 63 | 1009.6 |
| 20260506033526 | 19 | 201 | 1.6 | 14.5 | 0.00 | 0.03 | 0.03 | 63 | 1009.4 |
| 20260506033023 | 19 | 197 | 1.6 | 12.9 | 0.00 | 0.03 | 0.03 | 63 | 1009.4 |
| 20260506032525 | 19 | 158 | 1.6 | 14.5 | 0.00 | 0.03 | 0.03 | 62 | 1009.4 |
| 20260506032023 | 19 | 123 | 4.8 | 14.5 | 0.00 | 0.03 | 0.03 | 62 | 1009.4 |
| 20260506031528 | 20 | 156 | 1.6 | 14.5 | 0.00 | 0.03 | 0.03 | 61 | 1009.4 |
| 20260506031025 | 20 | 197 | 3.2 | 14.5 | 0.00 | 0.03 | 0.03 | 61 | 1009.4 |
| 20260506030521 | 20 | 157 | 4.8 | 14.5 | 0.00 | 0.03 | 0.03 | 61 | 1009.3 |
| 20260506030022 | 20 | 116 | 6.4 | 14.5 | 0.00 | 0.03 | 0.03 | 60 | 1009.4 |
| 20260506025524 | 20 | 145 | 1.6 | 11.3 | 0.00 | 0.03 | 0.03 | 59 | 1009.3 |
| 20260506025021 | 20 | 147 | 4.8 | 11.3 | 0.00 | 0.03 | 0.03 | 59 | 1009.4 |
| 20260506024535 | 20 | 151 | 4.8 | 22.5 | 0.00 | 0.03 | 0.03 | 58 | 1009.4 |
| 20260506024021 | 20 | 157 | 4.8 | 20.9 | 0.00 | 0.03 | 0.03 | 57 | 1009.4 |
| 20260506023522 | 20 | 139 | 4.8 | 11.3 | 0.00 | 0.03 | 0.03 | 56 | 1009.5 |
| 20260506023022 | 20 | 204 | 3.2 | 14.5 | 0.00 | 0.03 | 0.03 | 55 | 1009.5 |
| 20260506022525 | 20 | 234 | 4.8 | 14.5 | 0.00 | 0.03 | 0.03 | 55 | 1009.4 |
| 20260506022021 | 21 | 172 | 4.8 | 19.3 | 0.00 | 0.03 | 0.03 | 54 | 1009.4 |
| 20260506021521 | 21 | 203 | 6.4 | 20.9 | 0.00 | 0.03 | 0.03 | 53 | 1009.4 |
| 20260506021020 | 21 | 150 | 4.8 | 16.1 | 0.00 | 0.03 | 0.03 | 51 | 1009.4 |
| 20260506020521 | 21 | 132 | 4.8 | 19.3 | 0.00 | 0.03 | 0.03 | 50 | 1009.3 |
| 20260506020021 | 21 | 131 | 6.4 | 19.3 | 0.00 | 0.03 | 0.03 | 50 | 1009.3 |
| 20260506015520 | 21 | 188 | 3.2 | 17.7 | 0.00 | 0.03 | 0.03 | 49 | 1009.3 |
| 20260506015020 | 22 | 205 | 3.2 | 20.9 | 0.00 | 0.03 | 0.03 | 48 | 1009.3 |
| 20260506014522 | 22 | 130 | 3.2 | 20.9 | 0.00 | 0.03 | 0.03 | 48 | 1009.3 |
| 20260506014019 | 22 | 161 | 4.8 | 14.5 | 0.00 | 0.03 | 0.03 | 47 | 1009.3 |
| 20260506013519 | 22 | 160 | 4.8 | 17.7 | 0.00 | 0.03 | 0.03 | 47 | 1009.1 |
| 20260506013020 | 22 | 183 | 4.8 | 20.9 | 0.00 | 0.03 | 0.03 | 47 | 1009.1 |
| 20260506012519 | 22 | 163 | 4.8 | 24.1 | 0.00 | 0.03 | 0.03 | 46 | 1009.1 |
| 20260506012021 | 22 | 145 | 3.2 | 11.3 | 0.00 | 0.03 | 0.03 | 47 | 1009.1 |
| 20260506011546 | 22 | 188 | 3.2 | 16.1 | 0.00 | 0.03 | 0.03 | 46 | 1009.1 |
| 20260506011018 | 22 | 148 | 3.2 | 17.7 | 0.00 | 0.03 | 0.03 | 46 | 1009.0 |
| 20260506010518 | 22 | 199 | 1.6 | 17.7 | 0.00 | 0.03 | 0.03 | 46 | 1008.9 |
| 20260506010019 | 22 | 161 | 4.8 | 16.1 | 0.00 | 0.03 | 0.03 | 45 | 1008.9 |
| 20260506005519 | 22 | 188 | 4.8 | 16.1 | 0.00 | 0.03 | 0.03 | 45 | 1008.8 |
| 20260506005017 | 22 | 160 | 3.2 | 11.3 | 0.00 | 0.03 | 0.03 | 46 | 1008.8 |
| 20260506004518 | 22 | 212 | 3.2 | 12.9 | 0.00 | 0.03 | 0.03 | 46 | 1008.8 |
| 20260506004017 | 22 | 200 | 3.2 | 12.9 | 0.00 | 0.03 | 0.03 | 46 | 1008.7 |
| 20260506003518 | 22 | 155 | 1.6 | 9.7 | 0.00 | 0.03 | 0.03 | 47 | 1008.7 |
| 20260506003019 | 22 | 172 | 3.2 | 12.9 | 0.00 | 0.03 | 0.03 | 47 | 1008.6 |
| 20260506002519 | 22 | 147 | 3.2 | 12.9 | 0.00 | 0.03 | 0.03 | 47 | 1008.5 |
| 20260506002017 | 23 | 155 | 1.6 | 11.3 | 0.00 | 0.03 | 0.03 | 47 | 1008.4 |
| 20260506001517 | 23 | 149 | 3.2 | 27.4 | 0.00 | 0.03 | 0.03 | 46 | 1008.5 |
| 20260506001018 | 23 | 163 | 4.8 | 27.4 | 0.00 | 0.03 | 0.03 | 46 | 1008.3 |
| 20260506000521 | 23 | 142 | 3.2 | 12.9 | 0.00 | 0.03 | 0.03 | 46 | 1008.4 |
| 20260506000026 | 23 | 164 | 1.6 | 14.5 | 0.00 | 0.03 | 0.03 | 46 | 1008.3 |
| 20260505235516 | 23 | 178 | 3.2 | 14.5 | 0.00 | 0.03 | 0.03 | 45 | 1008.3 |
| 20260505235016 | 23 | 145 | 3.2 | 12.9 | 0.00 | 0.03 | 0.03 | 44 | 1008.2 |
| 20260505234534 | 23 | 157 | 1.6 | 6.4 | 0.00 | 0.03 | 0.03 | 43 | 1008.2 |
| 20260505234016 | 23 | 172 | 3.2 | 11.3 | 0.00 | 0.03 | 0.03 | 42 | 1008.1 |
| 20260505233515 | 23 | 185 | 1.6 | 11.3 | 0.00 | 0.03 | 0.03 | 41 | 1008.1 |
| 20260505233016 | 23 | 158 | 1.6 | 11.3 | 0.00 | 0.03 | 0.03 | 41 | 1008.1 |
| 20260505232517 | 23 | 248 | 3.2 | 11.3 | 0.00 | 0.03 | 0.03 | 41 | 1008.2 |
| 20260505232015 | 24 | 159 | 1.6 | 6.4 | 0.00 | 0.03 | 0.03 | 40 | 1008.1 |
| 20260505231516 | 24 | 235 | 1.6 | 8.0 | 0.00 | 0.03 | 0.03 | 40 | 1008.0 |
| 20260505231014 | 24 | 237 | 3.2 | 8.0 | 0.00 | 0.03 | 0.03 | 39 | 1008.0 |
| 20260505230514 | 24 | 214 | 1.6 | 8.0 | 0.00 | 0.03 | 0.03 | 39 | 1008.0 |
| 20260505230028 | 24 | 235 | 3.2 | 8.0 | 0.00 | 0.03 | 0.03 | 39 | 1008.0 |
| 20260505225518 | 24 | 164 | 4.8 | 8.0 | 0.00 | 0.03 | 0.03 | 39 | 1007.9 |
| 20260505225014 | 25 | 230 | 1.6 | 9.7 | 0.00 | 0.03 | 0.03 | 39 | 1007.9 |
| 20260505224523 | 25 | 225 | 1.6 | 9.7 | 0.00 | 0.03 | 0.03 | 39 | 1007.8 |
| 20260505224013 | 25 | 242 | 3.2 | 8.0 | 0.00 | 0.03 | 0.03 | 38 | 1007.8 |
| 20260505223513 | 25 | 238 | 3.2 | 8.0 | 0.00 | 0.03 | 0.03 | 38 | 1007.8 |
| 20260505223021 | 25 | 228 | 3.2 | 14.5 | 0.00 | 0.03 | 0.03 | 38 | 1007.8 |
| 20260505222517 | 25 | 236 | 1.6 | 14.5 | 0.00 | 0.03 | 0.03 | 37 | 1007.8 |
| 20260505222014 | 25 | 234 | 3.2 | 12.9 | 0.00 | 0.03 | 0.03 | 38 | 1007.7 |
| 20260505221514 | 25 | 240 | 3.2 | 8.0 | 0.00 | 0.03 | 0.03 | 37 | 1007.8 |
| 20260505221012 | 25 | 228 | 3.2 | 11.3 | 0.00 | 0.03 | 0.03 | 38 | 1007.9 |
| 20260505220512 | 25 | 220 | 3.2 | 11.3 | 0.00 | 0.03 | 0.03 | 36 | 1007.7 |
| 20260505220012 | 25 | 224 | 3.2 | 8.0 | 0.00 | 0.03 | 0.03 | 38 | 1007.7 |
| 20260505215512 | 25 | 190 | 1.6 | 8.0 | 0.00 | 0.03 | 0.03 | 38 | 1007.8 |
| 20260505215012 | 25 | 242 | 1.6 | 6.4 | 0.00 | 0.03 | 0.03 | 36 | 1007.8 |
| 20260505214517 | 25 | 242 | 3.2 | 11.3 | 0.00 | 0.03 | 0.03 | 37 | 1007.8 |
| 20260505214012 | 25 | 266 | 4.8 | 11.3 | 0.00 | 0.03 | 0.03 | 35 | 1007.6 |
| 20260505213511 | 25 | 246 | 1.6 | 6.4 | 0.00 | 0.03 | 0.03 | 37 | 1007.6 |
| 20260505213011 | 25 | 260 | 3.2 | 8.0 | 0.00 | 0.03 | 0.03 | 36 | 1007.5 |
| 20260505212511 | 25 | 236 | 3.2 | 14.5 | 0.00 | 0.03 | 0.03 | 35 | 1007.6 |
| 20260505212013 | 25 | 268 | 4.8 | 14.5 | 0.00 | 0.03 | 0.03 | 35 | 1007.3 |
| 20260505211521 | 25 | 244 | 6.4 | 11.3 | 0.00 | 0.03 | 0.03 | 34 | 1007.5 |
| 20260505211010 | 25 | 284 | 4.8 | 12.9 | 0.00 | 0.03 | 0.03 | 34 | 1007.3 |
| 20260505210510 | 25 | 269 | 3.2 | 9.7 | 0.00 | 0.03 | 0.03 | 34 | 1007.5 |
| 20260505210010 | 25 | 258 | 4.8 | 11.3 | 0.00 | 0.03 | 0.03 | 33 | 1007.5 |
| 20260505205510 | 25 | 248 | 6.4 | 14.5 | 0.00 | 0.03 | 0.03 | 34 | 1007.6 |
| 20260505205009 | 26 | 227 | 8.0 | 14.5 | 0.00 | 0.03 | 0.03 | 33 | 1007.5 |
| 20260505204509 | 26 | 265 | 6.4 | 14.5 | 0.00 | 0.03 | 0.03 | 33 | 1007.5 |
| 20260505204009 | 26 | 257 | 8.0 | 17.7 | 0.00 | 0.03 | 0.03 | 33 | 1007.6 |
| 20260505203509 | 26 | 230 | 6.4 | 17.7 | 0.00 | 0.03 | 0.03 | 33 | 1007.6 |
| 20260505203010 | 26 | 232 | 4.8 | 9.7 | 0.00 | 0.03 | 0.03 | 37 | 1007.6 |
| 20260505202509 | 26 | 220 | 3.2 | 11.3 | 0.00 | 0.03 | 0.03 | 36 | 1007.6 |